sensor_id;sensor_type;location;lat;lon;timestamp;temperature;humidity
13892;DHT22;7016;48.172;8.058;2024-01-30T00:02:40;5.10;99.90
13892;DHT22;7016;48.172;8.058;2024-01-30T00:05:26;5.00;99.90
13892;DHT22;7016;48.172;8.058;2024-01-30T00:08:14;5.10;99.90
13892;DHT22;7016;48.172;8.058;2024-01-30T00:11:02;5.10;99.90
13892;DHT22;7016;48.172;8.058;2024-01-30T00:13:50;5.20;99.90
13892;DHT22;7016;48.172;8.058;2024-01-30T00:16:36;5.00;99.90
13892;DHT22;7016;48.172;8.058;2024-01-30T00:19:23;5.00;99.90
13892;DHT22;7016;48.172;8.058;2024-01-30T00:22:09;5.10;99.90
13892;DHT22;7016;48.172;8.058;2024-01-30T00:24:55;5.10;99.90
13892;DHT22;7016;48.172;8.058;2024-01-30T00:27:42;5.20;99.90
13892;DHT22;7016;48.172;8.058;2024-01-30T00:30:28;5.20;99.90
13892;DHT22;7016;48.172;8.058;2024-01-30T00:33:14;5.20;99.90
13892;DHT22;7016;48.172;8.058;2024-01-30T00:36:02;5.00;99.90
13892;DHT22;7016;48.172;8.058;2024-01-30T00:38:48;5.00;99.90
13892;DHT22;7016;48.172;8.058;2024-01-30T00:41:35;5.10;99.90
13892;DHT22;7016;48.172;8.058;2024-01-30T00:44:21;5.20;99.90
13892;DHT22;7016;48.172;8.058;2024-01-30T00:47:07;5.20;99.90
13892;DHT22;7016;48.172;8.058;2024-01-30T00:49:54;5.30;99.90
13892;DHT22;7016;48.172;8.058;2024-01-30T00:52:40;5.20;99.90
13892;DHT22;7016;48.172;8.058;2024-01-30T00:55:27;4.90;99.90
13892;DHT22;7016;48.172;8.058;2024-01-30T00:58:14;5.00;99.90
13892;DHT22;7016;48.172;8.058;2024-01-30T01:01:00;5.10;99.90
13892;DHT22;7016;48.172;8.058;2024-01-30T01:03:46;5.20;99.90
13892;DHT22;7016;48.172;8.058;2024-01-30T01:06:32;4.90;99.90
13892;DHT22;7016;48.172;8.058;2024-01-30T01:09:18;5.10;99.90
13892;DHT22;7016;48.172;8.058;2024-01-30T01:12:05;5.00;99.90
13892;DHT22;7016;48.172;8.058;2024-01-30T01:14:51;5.10;99.90
13892;DHT22;7016;48.172;8.058;2024-01-30T01:17:38;5.10;99.90
13892;DHT22;7016;48.172;8.058;2024-01-30T01:20:24;5.10;99.90
13892;DHT22;7016;48.172;8.058;2024-01-30T01:23:11;5.10;99.90
13892;DHT22;7016;48.172;8.058;2024-01-30T01:25:57;5.00;99.90
13892;DHT22;7016;48.172;8.058;2024-01-30T01:28:45;5.10;99.90
13892;DHT22;7016;48.172;8.058;2024-01-30T01:31:32;5.10;99.90
13892;DHT22;7016;48.172;8.058;2024-01-30T01:34:18;5.00;99.90
13892;DHT22;7016;48.172;8.058;2024-01-30T01:37:04;5.00;99.90
13892;DHT22;7016;48.172;8.058;2024-01-30T01:39:51;5.10;99.90
13892;DHT22;7016;48.172;8.058;2024-01-30T01:42:37;5.10;99.90
13892;DHT22;7016;48.172;8.058;2024-01-30T01:45:25;5.20;99.90
13892;DHT22;7016;48.172;8.058;2024-01-30T01:48:13;5.20;99.90
13892;DHT22;7016;48.172;8.058;2024-01-30T01:51:00;5.20;99.90
13892;DHT22;7016;48.172;8.058;2024-01-30T01:53:46;5.30;99.90
13892;DHT22;7016;48.172;8.058;2024-01-30T01:56:33;5.30;99.90
13892;DHT22;7016;48.172;8.058;2024-01-30T01:59:20;5.30;99.90
13892;DHT22;7016;48.172;8.058;2024-01-30T02:02:08;5.20;99.90
13892;DHT22;7016;48.172;8.058;2024-01-30T02:04:57;5.30;99.90
13892;DHT22;7016;48.172;8.058;2024-01-30T02:07:44;5.20;99.90
13892;DHT22;7016;48.172;8.058;2024-01-30T02:10:30;5.20;99.90
13892;DHT22;7016;48.172;8.058;2024-01-30T02:13:16;5.20;99.90
13892;DHT22;7016;48.172;8.058;2024-01-30T02:16:03;5.20;99.90
13892;DHT22;7016;48.172;8.058;2024-01-30T02:18:49;5.20;99.90
13892;DHT22;7016;48.172;8.058;2024-01-30T02:21:35;5.40;99.90
13892;DHT22;7016;48.172;8.058;2024-01-30T02:24:21;5.30;99.90
13892;DHT22;7016;48.172;8.058;2024-01-30T02:27:07;5.30;99.90
13892;DHT22;7016;48.172;8.058;2024-01-30T02:29:53;5.40;99.90
13892;DHT22;7016;48.172;8.058;2024-01-30T02:32:39;5.30;99.90
13892;DHT22;7016;48.172;8.058;2024-01-30T02:35:26;5.20;99.90
13892;DHT22;7016;48.172;8.058;2024-01-30T02:38:12;5.30;99.90
13892;DHT22;7016;48.172;8.058;2024-01-30T02:40:58;5.20;99.90
13892;DHT22;7016;48.172;8.058;2024-01-30T02:43:44;5.30;99.90
13892;DHT22;7016;48.172;8.058;2024-01-30T02:46:30;5.40;99.90
13892;DHT22;7016;48.172;8.058;2024-01-30T02:49:16;5.40;99.90
13892;DHT22;7016;48.172;8.058;2024-01-30T02:52:03;5.30;99.90
13892;DHT22;7016;48.172;8.058;2024-01-30T02:54:49;5.40;99.90
13892;DHT22;7016;48.172;8.058;2024-01-30T02:57:36;5.50;99.90
13892;DHT22;7016;48.172;8.058;2024-01-30T03:00:23;5.30;99.90
13892;DHT22;7016;48.172;8.058;2024-01-30T03:03:09;5.30;99.90
13892;DHT22;7016;48.172;8.058;2024-01-30T03:05:55;5.40;99.90
13892;DHT22;7016;48.172;8.058;2024-01-30T03:08:41;5.50;99.90
13892;DHT22;7016;48.172;8.058;2024-01-30T03:11:28;5.40;99.90
13892;DHT22;7016;48.172;8.058;2024-01-30T03:14:14;5.40;99.90
13892;DHT22;7016;48.172;8.058;2024-01-30T03:17:00;5.30;99.90
13892;DHT22;7016;48.172;8.058;2024-01-30T03:19:46;5.40;99.90
13892;DHT22;7016;48.172;8.058;2024-01-30T03:22:32;5.40;99.90
13892;DHT22;7016;48.172;8.058;2024-01-30T03:25:18;5.50;99.90
13892;DHT22;7016;48.172;8.058;2024-01-30T03:28:05;5.50;99.90
13892;DHT22;7016;48.172;8.058;2024-01-30T03:30:51;5.60;99.90
13892;DHT22;7016;48.172;8.058;2024-01-30T03:33:37;5.60;99.90
13892;DHT22;7016;48.172;8.058;2024-01-30T03:36:24;5.60;99.90
13892;DHT22;7016;48.172;8.058;2024-01-30T03:39:10;5.80;99.90
13892;DHT22;7016;48.172;8.058;2024-01-30T03:41:56;6.00;99.90
13892;DHT22;7016;48.172;8.058;2024-01-30T03:44:42;6.30;99.90
13892;DHT22;7016;48.172;8.058;2024-01-30T03:47:28;6.30;99.90
13892;DHT22;7016;48.172;8.058;2024-01-30T03:50:15;6.40;99.90
13892;DHT22;7016;48.172;8.058;2024-01-30T03:53:01;6.40;99.90
13892;DHT22;7016;48.172;8.058;2024-01-30T03:55:47;6.50;99.90
13892;DHT22;7016;48.172;8.058;2024-01-30T03:58:33;6.60;99.90
13892;DHT22;7016;48.172;8.058;2024-01-30T04:01:19;6.80;99.90
13892;DHT22;7016;48.172;8.058;2024-01-30T04:04:05;6.90;99.90
13892;DHT22;7016;48.172;8.058;2024-01-30T04:06:52;7.30;99.90
13892;DHT22;7016;48.172;8.058;2024-01-30T04:09:38;7.40;99.90
13892;DHT22;7016;48.172;8.058;2024-01-30T04:12:24;7.50;99.90
13892;DHT22;7016;48.172;8.058;2024-01-30T04:15:11;7.30;99.90
13892;DHT22;7016;48.172;8.058;2024-01-30T04:17:59;7.30;99.90
13892;DHT22;7016;48.172;8.058;2024-01-30T04:20:45;7.30;99.90
13892;DHT22;7016;48.172;8.058;2024-01-30T04:23:31;7.20;99.90
13892;DHT22;7016;48.172;8.058;2024-01-30T04:26:17;7.20;99.90
13892;DHT22;7016;48.172;8.058;2024-01-30T04:29:04;7.30;99.90
13892;DHT22;7016;48.172;8.058;2024-01-30T04:31:50;7.00;99.90
13892;DHT22;7016;48.172;8.058;2024-01-30T04:34:36;7.10;99.90
13892;DHT22;7016;48.172;8.058;2024-01-30T04:37:23;7.10;99.90
13892;DHT22;7016;48.172;8.058;2024-01-30T04:40:09;7.30;99.90
13892;DHT22;7016;48.172;8.058;2024-01-30T04:42:56;7.50;99.90
13892;DHT22;7016;48.172;8.058;2024-01-30T04:45:42;7.50;99.90
13892;DHT22;7016;48.172;8.058;2024-01-30T04:48:28;7.30;99.90
13892;DHT22;7016;48.172;8.058;2024-01-30T04:51:14;7.20;99.90
13892;DHT22;7016;48.172;8.058;2024-01-30T04:54:00;7.20;99.90
13892;DHT22;7016;48.172;8.058;2024-01-30T04:56:47;7.00;99.90
13892;DHT22;7016;48.172;8.058;2024-01-30T04:59:33;7.10;99.90
13892;DHT22;7016;48.172;8.058;2024-01-30T05:02:19;7.10;99.90
13892;DHT22;7016;48.172;8.058;2024-01-30T05:05:05;6.90;99.90
13892;DHT22;7016;48.172;8.058;2024-01-30T05:07:51;6.80;99.90
13892;DHT22;7016;48.172;8.058;2024-01-30T05:10:38;6.90;99.90
13892;DHT22;7016;48.172;8.058;2024-01-30T05:13:24;6.90;99.90
13892;DHT22;7016;48.172;8.058;2024-01-30T05:16:10;6.70;99.90
13892;DHT22;7016;48.172;8.058;2024-01-30T05:18:56;6.70;99.90
13892;DHT22;7016;48.172;8.058;2024-01-30T05:21:42;6.60;99.90
13892;DHT22;7016;48.172;8.058;2024-01-30T05:24:28;6.70;99.90
13892;DHT22;7016;48.172;8.058;2024-01-30T05:27:14;6.60;99.90
13892;DHT22;7016;48.172;8.058;2024-01-30T05:30:01;6.60;99.90
13892;DHT22;7016;48.172;8.058;2024-01-30T05:32:47;6.70;99.90
13892;DHT22;7016;48.172;8.058;2024-01-30T05:35:33;6.70;99.90
13892;DHT22;7016;48.172;8.058;2024-01-30T05:38:20;6.70;99.90
13892;DHT22;7016;48.172;8.058;2024-01-30T05:41:06;6.60;99.90
13892;DHT22;7016;48.172;8.058;2024-01-30T05:43:52;6.60;99.90
13892;DHT22;7016;48.172;8.058;2024-01-30T05:46:38;6.50;99.90
13892;DHT22;7016;48.172;8.058;2024-01-30T05:49:24;6.40;99.90
13892;DHT22;7016;48.172;8.058;2024-01-30T05:52:10;6.50;99.90
13892;DHT22;7016;48.172;8.058;2024-01-30T05:54:57;6.70;99.90
13892;DHT22;7016;48.172;8.058;2024-01-30T05:57:43;6.70;99.90
13892;DHT22;7016;48.172;8.058;2024-01-30T06:00:29;6.60;99.90
13892;DHT22;7016;48.172;8.058;2024-01-30T06:03:15;6.70;99.90
13892;DHT22;7016;48.172;8.058;2024-01-30T06:06:01;6.70;99.90
13892;DHT22;7016;48.172;8.058;2024-01-30T06:08:48;6.70;99.90
13892;DHT22;7016;48.172;8.058;2024-01-30T06:11:34;6.70;99.90
13892;DHT22;7016;48.172;8.058;2024-01-30T06:14:20;6.60;99.90
13892;DHT22;7016;48.172;8.058;2024-01-30T06:17:06;6.60;99.90
13892;DHT22;7016;48.172;8.058;2024-01-30T06:19:53;6.60;99.90
13892;DHT22;7016;48.172;8.058;2024-01-30T06:22:39;6.40;99.90
13892;DHT22;7016;48.172;8.058;2024-01-30T06:25:25;6.40;99.90
13892;DHT22;7016;48.172;8.058;2024-01-30T06:28:11;6.30;99.90
13892;DHT22;7016;48.172;8.058;2024-01-30T06:30:57;6.40;99.90
13892;DHT22;7016;48.172;8.058;2024-01-30T06:33:46;6.50;99.90
13892;DHT22;7016;48.172;8.058;2024-01-30T06:36:32;6.40;99.90
13892;DHT22;7016;48.172;8.058;2024-01-30T06:39:18;6.30;99.90
13892;DHT22;7016;48.172;8.058;2024-01-30T06:42:04;6.40;99.90
13892;DHT22;7016;48.172;8.058;2024-01-30T06:44:51;6.40;99.90
13892;DHT22;7016;48.172;8.058;2024-01-30T06:47:37;6.40;99.90
13892;DHT22;7016;48.172;8.058;2024-01-30T06:50:23;6.30;99.90
13892;DHT22;7016;48.172;8.058;2024-01-30T06:53:09;6.30;99.90
13892;DHT22;7016;48.172;8.058;2024-01-30T06:55:55;6.10;99.90
13892;DHT22;7016;48.172;8.058;2024-01-30T06:58:41;6.10;99.90
13892;DHT22;7016;48.172;8.058;2024-01-30T07:01:30;6.20;99.90
13892;DHT22;7016;48.172;8.058;2024-01-30T07:04:16;6.60;99.90
13892;DHT22;7016;48.172;8.058;2024-01-30T07:07:04;6.50;99.90
13892;DHT22;7016;48.172;8.058;2024-01-30T07:09:51;6.50;99.90
13892;DHT22;7016;48.172;8.058;2024-01-30T07:12:42;6.40;99.90
13892;DHT22;7016;48.172;8.058;2024-01-30T07:15:28;6.70;99.90
13892;DHT22;7016;48.172;8.058;2024-01-30T07:18:14;6.70;99.90
13892;DHT22;7016;48.172;8.058;2024-01-30T07:21:01;7.30;99.90
13892;DHT22;7016;48.172;8.058;2024-01-30T07:23:47;7.70;99.90
13892;DHT22;7016;48.172;8.058;2024-01-30T07:26:33;7.80;99.90
13892;DHT22;7016;48.172;8.058;2024-01-30T07:29:19;8.00;99.90
13892;DHT22;7016;48.172;8.058;2024-01-30T07:32:06;8.30;99.90
13892;DHT22;7016;48.172;8.058;2024-01-30T07:34:52;8.50;99.90
13892;DHT22;7016;48.172;8.058;2024-01-30T07:37:38;8.60;99.90
13892;DHT22;7016;48.172;8.058;2024-01-30T07:40:24;8.50;99.90
13892;DHT22;7016;48.172;8.058;2024-01-30T07:43:10;8.70;99.90
13892;DHT22;7016;48.172;8.058;2024-01-30T07:46:00;8.90;99.90
13892;DHT22;7016;48.172;8.058;2024-01-30T07:48:47;8.80;99.90
13892;DHT22;7016;48.172;8.058;2024-01-30T07:51:33;8.90;99.90
13892;DHT22;7016;48.172;8.058;2024-01-30T07:54:19;9.10;99.90
13892;DHT22;7016;48.172;8.058;2024-01-30T07:57:06;8.20;99.90
13892;DHT22;7016;48.172;8.058;2024-01-30T07:59:52;9.30;99.90
13892;DHT22;7016;48.172;8.058;2024-01-30T08:02:38;9.50;99.90
13892;DHT22;7016;48.172;8.058;2024-01-30T08:05:24;9.50;99.90
13892;DHT22;7016;48.172;8.058;2024-01-30T08:08:10;9.60;99.90
13892;DHT22;7016;48.172;8.058;2024-01-30T08:10:56;9.50;99.90
13892;DHT22;7016;48.172;8.058;2024-01-30T08:13:42;9.50;99.90
13892;DHT22;7016;48.172;8.058;2024-01-30T08:16:29;9.70;99.90
13892;DHT22;7016;48.172;8.058;2024-01-30T08:19:15;9.70;99.90
13892;DHT22;7016;48.172;8.058;2024-01-30T08:22:01;9.70;99.90
13892;DHT22;7016;48.172;8.058;2024-01-30T08:24:47;9.90;99.90
13892;DHT22;7016;48.172;8.058;2024-01-30T08:27:33;9.80;99.90
13892;DHT22;7016;48.172;8.058;2024-01-30T08:30:21;9.90;99.90
13892;DHT22;7016;48.172;8.058;2024-01-30T08:33:07;10.00;99.90
13892;DHT22;7016;48.172;8.058;2024-01-30T08:35:54;10.00;99.90
13892;DHT22;7016;48.172;8.058;2024-01-30T08:38:46;10.00;99.90
13892;DHT22;7016;48.172;8.058;2024-01-30T08:41:33;10.10;99.90
13892;DHT22;7016;48.172;8.058;2024-01-30T08:44:20;10.10;99.90
13892;DHT22;7016;48.172;8.058;2024-01-30T08:47:06;10.00;99.90
13892;DHT22;7016;48.172;8.058;2024-01-30T08:49:52;10.10;99.90
13892;DHT22;7016;48.172;8.058;2024-01-30T08:52:38;10.10;99.90
13892;DHT22;7016;48.172;8.058;2024-01-30T08:55:24;10.10;99.90
13892;DHT22;7016;48.172;8.058;2024-01-30T08:58:11;10.20;99.90
13892;DHT22;7016;48.172;8.058;2024-01-30T09:00:57;10.20;99.90
13892;DHT22;7016;48.172;8.058;2024-01-30T09:03:43;10.20;99.90
13892;DHT22;7016;48.172;8.058;2024-01-30T09:06:31;10.30;99.90
13892;DHT22;7016;48.172;8.058;2024-01-30T09:09:17;10.40;99.90
13892;DHT22;7016;48.172;8.058;2024-01-30T09:12:04;10.40;99.90
13892;DHT22;7016;48.172;8.058;2024-01-30T09:14:53;10.50;99.80
13892;DHT22;7016;48.172;8.058;2024-01-30T09:17:39;10.40;99.90
13892;DHT22;7016;48.172;8.058;2024-01-30T09:20:25;10.50;99.90
13892;DHT22;7016;48.172;8.058;2024-01-30T09:23:11;10.50;99.90
13892;DHT22;7016;48.172;8.058;2024-01-30T09:25:57;10.50;99.50
13892;DHT22;7016;48.172;8.058;2024-01-30T09:28:44;10.60;99.90
13892;DHT22;7016;48.172;8.058;2024-01-30T09:31:30;10.60;99.40
13892;DHT22;7016;48.172;8.058;2024-01-30T09:34:16;10.70;99.50
13892;DHT22;7016;48.172;8.058;2024-01-30T09:37:03;10.70;99.40
13892;DHT22;7016;48.172;8.058;2024-01-30T09:39:49;10.80;98.90
13892;DHT22;7016;48.172;8.058;2024-01-30T09:42:36;10.80;98.90
13892;DHT22;7016;48.172;8.058;2024-01-30T09:45:24;10.80;98.70
13892;DHT22;7016;48.172;8.058;2024-01-30T09:48:11;10.90;98.70
13892;DHT22;7016;48.172;8.058;2024-01-30T09:50:57;11.00;99.40
13892;DHT22;7016;48.172;8.058;2024-01-30T09:53:44;10.90;98.30
13892;DHT22;7016;48.172;8.058;2024-01-30T09:56:30;10.90;98.20
13892;DHT22;7016;48.172;8.058;2024-01-30T09:59:16;10.90;98.50
13892;DHT22;7016;48.172;8.058;2024-01-30T10:02:03;11.00;98.60
13892;DHT22;7016;48.172;8.058;2024-01-30T10:04:51;11.00;98.20
13892;DHT22;7016;48.172;8.058;2024-01-30T10:07:37;11.00;98.80
13892;DHT22;7016;48.172;8.058;2024-01-30T10:10:23;11.00;98.80
13892;DHT22;7016;48.172;8.058;2024-01-30T10:13:10;11.00;98.30
13892;DHT22;7016;48.172;8.058;2024-01-30T10:15:56;11.00;98.10
13892;DHT22;7016;48.172;8.058;2024-01-30T10:18:44;11.00;98.50
13892;DHT22;7016;48.172;8.058;2024-01-30T10:21:30;11.00;98.60
13892;DHT22;7016;48.172;8.058;2024-01-30T10:24:16;11.10;99.40
13892;DHT22;7016;48.172;8.058;2024-01-30T10:27:05;11.10;98.60
13892;DHT22;7016;48.172;8.058;2024-01-30T10:29:51;11.10;99.20
13892;DHT22;7016;48.172;8.058;2024-01-30T10:32:37;11.20;98.90
13892;DHT22;7016;48.172;8.058;2024-01-30T10:35:24;11.20;99.10
13892;DHT22;7016;48.172;8.058;2024-01-30T10:38:10;11.20;99.40
13892;DHT22;7016;48.172;8.058;2024-01-30T10:41:01;11.20;99.20
13892;DHT22;7016;48.172;8.058;2024-01-30T10:44:08;11.30;99.40
13892;DHT22;7016;48.172;8.058;2024-01-30T10:47:00;11.20;97.70
13892;DHT22;7016;48.172;8.058;2024-01-30T10:49:49;11.00;98.50
13892;DHT22;7016;48.172;8.058;2024-01-30T10:52:38;11.20;98.50
13892;DHT22;7016;48.172;8.058;2024-01-30T10:55:26;11.40;98.70
13892;DHT22;7016;48.172;8.058;2024-01-30T10:58:14;11.50;99.00
13892;DHT22;7016;48.172;8.058;2024-01-30T11:01:01;11.50;98.70
13892;DHT22;7016;48.172;8.058;2024-01-30T11:03:51;11.40;98.70
13892;DHT22;7016;48.172;8.058;2024-01-30T11:06:42;11.50;98.10
13892;DHT22;7016;48.172;8.058;2024-01-30T11:09:29;11.30;97.60
13892;DHT22;7016;48.172;8.058;2024-01-30T11:12:15;11.30;97.70
13892;DHT22;7016;48.172;8.058;2024-01-30T11:15:07;11.30;97.30
13892;DHT22;7016;48.172;8.058;2024-01-30T11:17:53;11.30;97.70
13892;DHT22;7016;48.172;8.058;2024-01-30T11:20:46;11.50;98.00
13892;DHT22;7016;48.172;8.058;2024-01-30T11:23:36;11.60;98.10
13892;DHT22;7016;48.172;8.058;2024-01-30T11:26:27;11.60;97.30
13892;DHT22;7016;48.172;8.058;2024-01-30T11:29:14;11.70;97.80
13892;DHT22;7016;48.172;8.058;2024-01-30T11:32:01;11.80;97.60
13892;DHT22;7016;48.172;8.058;2024-01-30T11:34:49;11.50;96.80
13892;DHT22;7016;48.172;8.058;2024-01-30T11:37:37;11.50;97.10
13892;DHT22;7016;48.172;8.058;2024-01-30T11:40:30;11.50;96.80
13892;DHT22;7016;48.172;8.058;2024-01-30T11:43:17;11.70;97.50
13892;DHT22;7016;48.172;8.058;2024-01-30T11:46:06;11.60;96.60
13892;DHT22;7016;48.172;8.058;2024-01-30T11:48:52;11.80;96.60
13892;DHT22;7016;48.172;8.058;2024-01-30T11:51:39;11.80;96.90
13892;DHT22;7016;48.172;8.058;2024-01-30T11:54:25;11.80;97.20
13892;DHT22;7016;48.172;8.058;2024-01-30T11:57:11;11.80;97.50
13892;DHT22;7016;48.172;8.058;2024-01-30T11:59:57;11.90;97.00
13892;DHT22;7016;48.172;8.058;2024-01-30T12:02:44;12.00;96.70
13892;DHT22;7016;48.172;8.058;2024-01-30T12:05:34;12.10;96.80
13892;DHT22;7016;48.172;8.058;2024-01-30T12:08:21;12.10;97.00
13892;DHT22;7016;48.172;8.058;2024-01-30T12:11:07;12.10;97.20
13892;DHT22;7016;48.172;8.058;2024-01-30T12:13:54;12.20;96.70
13892;DHT22;7016;48.172;8.058;2024-01-30T12:16:40;12.40;97.20
13892;DHT22;7016;48.172;8.058;2024-01-30T12:19:27;12.40;96.80
13892;DHT22;7016;48.172;8.058;2024-01-30T12:22:13;12.50;96.90
13892;DHT22;7016;48.172;8.058;2024-01-30T12:25:00;12.50;97.30
13892;DHT22;7016;48.172;8.058;2024-01-30T12:27:48;12.50;97.50
13892;DHT22;7016;48.172;8.058;2024-01-30T12:30:37;12.50;97.70
13892;DHT22;7016;48.172;8.058;2024-01-30T12:33:26;12.40;97.50
13892;DHT22;7016;48.172;8.058;2024-01-30T12:36:14;12.50;97.70
13892;DHT22;7016;48.172;8.058;2024-01-30T12:39:01;12.70;98.00
13892;DHT22;7016;48.172;8.058;2024-01-30T12:41:47;12.80;98.30
13892;DHT22;7016;48.172;8.058;2024-01-30T12:44:34;12.80;98.50
13892;DHT22;7016;48.172;8.058;2024-01-30T12:47:23;12.80;98.80
13892;DHT22;7016;48.172;8.058;2024-01-30T12:50:09;12.60;99.40
13892;DHT22;7016;48.172;8.058;2024-01-30T12:52:56;12.70;99.50
13892;DHT22;7016;48.172;8.058;2024-01-30T12:55:42;12.80;99.50
13892;DHT22;7016;48.172;8.058;2024-01-30T12:58:28;12.70;99.80
13892;DHT22;7016;48.172;8.058;2024-01-30T13:01:14;12.60;99.90
13892;DHT22;7016;48.172;8.058;2024-01-30T13:04:01;12.60;99.70
13892;DHT22;7016;48.172;8.058;2024-01-30T13:06:47;12.40;99.70
13892;DHT22;7016;48.172;8.058;2024-01-30T13:09:33;12.40;99.90
13892;DHT22;7016;48.172;8.058;2024-01-30T13:12:19;12.50;99.90
13892;DHT22;7016;48.172;8.058;2024-01-30T13:15:06;12.50;99.90
13892;DHT22;7016;48.172;8.058;2024-01-30T13:17:52;12.60;99.90
13892;DHT22;7016;48.172;8.058;2024-01-30T13:20:40;12.70;99.90
13892;DHT22;7016;48.172;8.058;2024-01-30T13:23:26;12.60;99.90
13892;DHT22;7016;48.172;8.058;2024-01-30T13:26:12;12.60;99.90
13892;DHT22;7016;48.172;8.058;2024-01-30T13:28:59;12.70;99.90
13892;DHT22;7016;48.172;8.058;2024-01-30T13:31:45;12.80;99.90
13892;DHT22;7016;48.172;8.058;2024-01-30T13:34:32;12.60;99.90
13892;DHT22;7016;48.172;8.058;2024-01-30T13:37:18;12.50;99.90
13892;DHT22;7016;48.172;8.058;2024-01-30T13:40:05;12.70;99.90
13892;DHT22;7016;48.172;8.058;2024-01-30T13:42:55;12.60;99.90
13892;DHT22;7016;48.172;8.058;2024-01-30T13:45:41;12.70;99.90
13892;DHT22;7016;48.172;8.058;2024-01-30T13:48:28;12.80;99.90
13892;DHT22;7016;48.172;8.058;2024-01-30T13:51:15;12.90;99.90
13892;DHT22;7016;48.172;8.058;2024-01-30T13:54:03;12.80;99.90
13892;DHT22;7016;48.172;8.058;2024-01-30T13:56:49;12.70;99.90
13892;DHT22;7016;48.172;8.058;2024-01-30T13:59:35;12.80;99.90
13892;DHT22;7016;48.172;8.058;2024-01-30T14:02:21;12.90;99.90
13892;DHT22;7016;48.172;8.058;2024-01-30T14:05:08;12.90;99.90
13892;DHT22;7016;48.172;8.058;2024-01-30T14:07:56;12.90;99.90
13892;DHT22;7016;48.172;8.058;2024-01-30T14:10:43;12.70;99.90
13892;DHT22;7016;48.172;8.058;2024-01-30T14:13:30;12.60;99.90
13892;DHT22;7016;48.172;8.058;2024-01-30T14:16:17;12.60;99.90
13892;DHT22;7016;48.172;8.058;2024-01-30T14:19:03;12.70;99.90
13892;DHT22;7016;48.172;8.058;2024-01-30T14:21:49;12.80;99.90
13892;DHT22;7016;48.172;8.058;2024-01-30T14:24:36;12.80;99.90
13892;DHT22;7016;48.172;8.058;2024-01-30T14:27:23;12.70;99.90
13892;DHT22;7016;48.172;8.058;2024-01-30T14:30:10;12.70;99.90
13892;DHT22;7016;48.172;8.058;2024-01-30T14:32:57;12.80;99.90
13892;DHT22;7016;48.172;8.058;2024-01-30T14:35:43;12.80;99.90
13892;DHT22;7016;48.172;8.058;2024-01-30T14:38:29;12.70;99.90
13892;DHT22;7016;48.172;8.058;2024-01-30T14:41:15;12.70;99.90
13892;DHT22;7016;48.172;8.058;2024-01-30T14:44:02;12.80;99.90
13892;DHT22;7016;48.172;8.058;2024-01-30T14:46:49;12.70;99.90
13892;DHT22;7016;48.172;8.058;2024-01-30T14:49:35;12.80;99.90
13892;DHT22;7016;48.172;8.058;2024-01-30T14:52:21;12.80;99.90
13892;DHT22;7016;48.172;8.058;2024-01-30T14:55:07;12.80;99.90
13892;DHT22;7016;48.172;8.058;2024-01-30T14:57:54;12.70;99.90
13892;DHT22;7016;48.172;8.058;2024-01-30T15:00:41;12.70;99.90
13892;DHT22;7016;48.172;8.058;2024-01-30T15:03:28;12.80;99.90
13892;DHT22;7016;48.172;8.058;2024-01-30T15:06:17;12.80;99.90
13892;DHT22;7016;48.172;8.058;2024-01-30T15:09:04;12.80;99.90
13892;DHT22;7016;48.172;8.058;2024-01-30T15:11:50;13.00;99.90
13892;DHT22;7016;48.172;8.058;2024-01-30T15:14:37;13.10;99.90
13892;DHT22;7016;48.172;8.058;2024-01-30T15:17:23;13.10;99.90
13892;DHT22;7016;48.172;8.058;2024-01-30T15:20:09;13.10;99.90
13892;DHT22;7016;48.172;8.058;2024-01-30T15:22:55;13.00;99.90
13892;DHT22;7016;48.172;8.058;2024-01-30T15:25:42;12.80;99.90
13892;DHT22;7016;48.172;8.058;2024-01-30T15:28:36;12.80;99.90
13892;DHT22;7016;48.172;8.058;2024-01-30T15:31:22;12.70;99.90
13892;DHT22;7016;48.172;8.058;2024-01-30T15:34:08;12.70;99.90
13892;DHT22;7016;48.172;8.058;2024-01-30T15:36:55;12.50;99.90
13892;DHT22;7016;48.172;8.058;2024-01-30T15:39:41;12.60;99.90
13892;DHT22;7016;48.172;8.058;2024-01-30T15:42:27;12.70;99.90
13892;DHT22;7016;48.172;8.058;2024-01-30T15:45:14;12.50;99.90
13892;DHT22;7016;48.172;8.058;2024-01-30T15:48:00;12.50;99.90
13892;DHT22;7016;48.172;8.058;2024-01-30T15:50:46;12.60;99.90
13892;DHT22;7016;48.172;8.058;2024-01-30T15:53:32;12.70;99.90
13892;DHT22;7016;48.172;8.058;2024-01-30T15:59:05;12.60;99.90
13892;DHT22;7016;48.172;8.058;2024-01-30T16:01:51;12.60;99.90
13892;DHT22;7016;48.172;8.058;2024-01-30T16:04:38;12.60;99.90
13892;DHT22;7016;48.172;8.058;2024-01-30T16:07:24;12.60;99.90
13892;DHT22;7016;48.172;8.058;2024-01-30T16:10:11;12.50;99.90
13892;DHT22;7016;48.172;8.058;2024-01-30T16:13:02;12.50;99.90
13892;DHT22;7016;48.172;8.058;2024-01-30T16:15:48;12.60;99.90
13892;DHT22;7016;48.172;8.058;2024-01-30T16:18:34;12.60;99.90
13892;DHT22;7016;48.172;8.058;2024-01-30T16:21:20;12.60;99.90
13892;DHT22;7016;48.172;8.058;2024-01-30T16:24:07;12.50;99.90
13892;DHT22;7016;48.172;8.058;2024-01-30T16:26:53;12.50;99.90
13892;DHT22;7016;48.172;8.058;2024-01-30T16:29:39;12.60;99.90
13892;DHT22;7016;48.172;8.058;2024-01-30T16:32:25;12.60;99.90
13892;DHT22;7016;48.172;8.058;2024-01-30T16:35:11;12.50;99.90
13892;DHT22;7016;48.172;8.058;2024-01-30T16:37:58;12.50;99.90
13892;DHT22;7016;48.172;8.058;2024-01-30T16:40:45;12.40;99.90
13892;DHT22;7016;48.172;8.058;2024-01-30T16:43:32;12.30;99.90
13892;DHT22;7016;48.172;8.058;2024-01-30T16:46:18;12.20;99.90
13892;DHT22;7016;48.172;8.058;2024-01-30T16:49:04;12.10;99.90
13892;DHT22;7016;48.172;8.058;2024-01-30T16:51:50;12.00;99.90
13892;DHT22;7016;48.172;8.058;2024-01-30T16:54:36;12.10;99.90
13892;DHT22;7016;48.172;8.058;2024-01-30T16:57:22;12.10;99.90
13892;DHT22;7016;48.172;8.058;2024-01-30T17:00:09;12.00;99.90
13892;DHT22;7016;48.172;8.058;2024-01-30T17:02:56;12.00;99.90
13892;DHT22;7016;48.172;8.058;2024-01-30T17:05:42;11.90;99.90
13892;DHT22;7016;48.172;8.058;2024-01-30T17:08:28;11.90;99.90
13892;DHT22;7016;48.172;8.058;2024-01-30T17:11:14;11.80;99.90
13892;DHT22;7016;48.172;8.058;2024-01-30T17:14:00;11.90;99.90
13892;DHT22;7016;48.172;8.058;2024-01-30T17:16:47;11.90;99.90
13892;DHT22;7016;48.172;8.058;2024-01-30T17:19:34;11.90;99.90
13892;DHT22;7016;48.172;8.058;2024-01-30T17:22:20;11.70;99.90
13892;DHT22;7016;48.172;8.058;2024-01-30T17:25:07;11.80;99.90
13892;DHT22;7016;48.172;8.058;2024-01-30T17:27:54;11.80;99.90
13892;DHT22;7016;48.172;8.058;2024-01-30T17:30:42;11.70;99.90
13892;DHT22;7016;48.172;8.058;2024-01-30T17:33:30;11.70;99.90
13892;DHT22;7016;48.172;8.058;2024-01-30T17:36:17;11.60;99.90
13892;DHT22;7016;48.172;8.058;2024-01-30T17:39:03;11.60;99.90
13892;DHT22;7016;48.172;8.058;2024-01-30T17:41:49;11.50;99.90
13892;DHT22;7016;48.172;8.058;2024-01-30T17:44:37;11.60;99.90
13892;DHT22;7016;48.172;8.058;2024-01-30T17:47:26;11.60;99.90
13892;DHT22;7016;48.172;8.058;2024-01-30T17:50:12;11.60;99.90
13892;DHT22;7016;48.172;8.058;2024-01-30T17:52:58;11.40;99.90
13892;DHT22;7016;48.172;8.058;2024-01-30T17:55:44;11.40;99.90
13892;DHT22;7016;48.172;8.058;2024-01-30T17:58:31;11.30;99.90
13892;DHT22;7016;48.172;8.058;2024-01-30T18:01:18;11.30;99.90